Alexander Maersk — OZRC2 — position and weather

sailwx.info

Track history (hours):
 
Tides and Currents Weather Stations Pressure Air Temp Water Temp Dewpoint Dewpoint Depression Visibility Wind Speed Wind Dir Waves Ship Positions

Alexander Maersk

Last reported at 2018-Apr-23 15:14 UTC. Time now 2018-Apr-23 19:31 UTC.
Position N 35°48' E 014°52'.

Length 155 m; draft 6.5 m.

Type: Cargo ship. MMSI: 219470000.

Date/timePositionNaut miles runAvg speedWind from/ knotsBaromVisibWave heightAir tempDewpointWater temp
2018-Apr-23 15:14N 35°48' E 014°52'0 0.0
2018-Apr-23 14:59N 35°48' E 014°52'0 0.0
2018-Apr-23 14:29N 35°48' E 014°52'0 0.1
2018-Apr-23 13:59N 35°48' E 014°52'0 0.0
2018-Apr-23 13:29N 35°48' E 014°52'0 0.0
2018-Apr-23 12:59N 35°48' E 014°52'0 0.0
2018-Apr-23 12:29N 35°48' E 014°52'0 0.0
2018-Apr-23 11:59N 35°48' E 014°52'0 0.0
2018-Apr-23 11:29N 35°48' E 014°52'0 0.2
2018-Apr-23 10:59N 35°48' E 014°52'0 0.2
2018-Apr-23 10:30N 35°48' E 014°52'2 4.6
2018-Apr-23 10:00N 35°51' E 014°53'4 8.7
2018-Apr-23 09:30N 35°55' E 014°54'4 8.8
2018-Apr-23 09:00N 35°59' E 014°56'5 8.9
2018-Apr-23 08:30N 36°03' E 014°57'5 9.3
2018-Apr-23 08:00N 36°08' E 014°59'81 8.9
2018-Apr-22 22:55N 37°24' E 015°31'4 8.8
2018-Apr-22 22:30N 37°28' E 015°32'7 8.7
2018-Apr-22 21:43N 37°35' E 015°33'2 8.8
2018-Apr-22 21:30N 37°37' E 015°33'4 9.1
2018-Apr-22 21:00N 37°41' E 015°33'16 9.1
2018-Apr-22 19:17N 37°57' E 015°34'310.0
2018-Apr-22 19:00N 37°60' E 015°34'5 9.7
2018-Apr-22 18:30N 38°05' E 015°35'511.1
2018-Apr-22 18:00N 38°10' E 015°36'5 9.8
2018-Apr-22 17:30N 38°15' E 015°37'4 8.4
2018-Apr-22 17:00N 38°18' E 015°41'4 8.7
2018-Apr-22 16:30N 38°21' E 015°37'4 8.7
2018-Apr-22 16:00N 38°24' E 015°33'4 8.9
2018-Apr-22 15:30N 38°27' E 015°29'4 8.9
2018-Apr-22 15:00N 38°31' E 015°25'5 8.9
2018-Apr-22 14:28N 38°34' E 015°21'4 8.8
2018-Apr-22 14:00N 38°37' E 015°17'5 8.9
2018-Apr-22 13:30N 38°40' E 015°13'4 8.8
2018-Apr-22 13:00N 38°43' E 015°09'5 8.8
2018-Apr-22 12:29N 38°47' E 015°07'85 8.7
2018-Apr-22 02:45N 40°05' E 014°22'12 8.5
2018-Apr-22 01:22N 40°15' E 014°16'8 8.3
2018-Apr-22 00:24N 40°23' E 014°11'3 8.3
2018-Apr-22 00:00N 40°26' E 014°10'6 8.1
2018-Apr-21 23:15N 40°31' E 014°06'2 7.5
2018-Apr-21 23:00N 40°33' E 014°05'4 8.0
2018-Apr-21 22:30N 40°37' E 014°08'4 8.3
2018-Apr-21 22:00N 40°40' E 014°11'4 8.1
2018-Apr-21 21:30N 40°44' E 014°13'4 8.5
2018-Apr-21 21:01N 40°47' E 014°16'3 6.0
2018-Apr-21 20:30N 40°50' E 014°17'0 0.3
2018-Apr-21 20:00N 40°50' E 014°17'0 0.0
2018-Apr-21 19:30N 40°50' E 014°17'0 0.0
2018-Apr-21 18:57N 40°50' E 014°17'0 0.0
2018-Apr-21 18:30N 40°50' E 014°17'0 0.0
2018-Apr-21 18:00N 40°50' E 014°17'0 0.0
2018-Apr-21 17:30N 40°50' E 014°17'0 0.0
2018-Apr-21 17:00N 40°50' E 014°17'0 0.0
2018-Apr-21 16:30N 40°50' E 014°17'0 0.0
2018-Apr-21 16:00N 40°50' E 014°17'0 0.0
2018-Apr-21 15:30N 40°50' E 014°17'0 0.0
2018-Apr-21 15:00N 40°50' E 014°17'0 0.0
2018-Apr-21 14:30N 40°50' E 014°17'0 0.0
2018-Apr-21 14:00N 40°50' E 014°17'0 0.0
2018-Apr-21 13:30N 40°50' E 014°17'0 0.0
2018-Apr-21 13:00N 40°50' E 014°17'0 0.0
2018-Apr-21 12:30N 40°50' E 014°17'0 0.0
2018-Apr-21 12:00N 40°50' E 014°17'0 0.0
2018-Apr-21 11:30N 40°50' E 014°17'0 0.3
2018-Apr-21 11:00N 40°50' E 014°17'2 3.9
2018-Apr-21 10:30N 40°48' E 014°17'4 8.1
2018-Apr-21 10:00N 40°45' E 014°15'510.6
2018-Apr-21 09:30N 40°40' E 014°11'510.6
2018-Apr-21 09:00N 40°36' E 014°08'7 9.6
2018-Apr-21 08:14N 40°28' E 014°09'310.3
2018-Apr-21 07:58N 40°26' E 014°11'510.3
2018-Apr-21 07:28N 40°21' E 014°14'13215.1
2018-Apr-20 22:44N 38°26' E 015°37'414.8
2018-Apr-20 22:30N 38°23' E 015°39'812.3
2018-Apr-20 21:53N 38°15' E 015°40'513.1
2018-Apr-20 21:30N 38°11' E 015°37'713.8
2018-Apr-20 21:00N 38°04' E 015°36'612.8
2018-Apr-20 20:31N 37°58' E 015°35'813.2
2018-Apr-20 19:55N 37°50' E 015°35'614.1
2018-Apr-20 19:30N 37°44' E 015°34'714.2
2018-Apr-20 19:00N 37°37' E 015°33'914.2
2018-Apr-20 18:23N 37°28' E 015°32'614.7
2018-Apr-20 18:00N 37°23' E 015°31'815.0
2018-Apr-20 17:28N 37°15' E 015°30'14210.6
2018-Apr-20 04:05N 34°56' E 014°53'1 8.5
2018-Apr-20 03:59N 34°55' E 014°53'5 9.3
2018-Apr-20 03:29N 34°51' E 014°52'4 8.3
2018-Apr-20 02:58N 34°46' E 014°51'4 8.3
2018-Apr-20 02:30N 34°43' E 014°50'4 8.8
2018-Apr-20 02:00N 34°38' E 014°49'7 9.2
2018-Apr-20 01:15N 34°31' E 014°47'  
2018-Apr-17 18:12N 32°41' E 014°15'0 0.0
2018-Apr-17 18:00N 32°41' E 014°15'0 0.0
2018-Apr-17 17:27N 32°41' E 014°15'0 0.0
2018-Apr-17 13:36N 32°41' E 014°15'0 0.0
2018-Apr-17 13:27N 32°41' E 014°15'0 0.0
2018-Apr-17 12:15N 32°41' E 014°15'  
2018-Apr-14 05:54N 32°22' E 015°13'0 0.0
2018-Apr-14 05:27N 32°22' E 015°13'0 0.0
2018-Apr-13 21:09N 32°22' E 015°13'0 0.0
2018-Apr-13 19:03N 32°22' E 015°13'0 0.0
2018-Apr-13 15:45N 32°22' E 015°13'0 0.0
2018-Apr-13 15:30N 32°22' E 015°13'  
Track history (hours):
 
Tides and Currents Weather Stations Pressure Air Temp Water Temp Dewpoint Dewpoint Depression Visibility Wind Speed Wind Dir Waves Ship Positions

Alexander Maersk

Last reported at 2018-Apr-23 15:14 UTC. Time now 2018-Apr-23 19:31 UTC.
Position N 35°48' E 014°52'.

Length 155 m; draft 6.5 m.

Type: Cargo ship. MMSI: 219470000.

Date/timePositionNaut miles runAvg speedWind from/ knotsBaromVisibWave heightAir tempDewpointWater temp
2018-Apr-23 15:14N 35°48' E 014°52'0 0.0
2018-Apr-23 14:59N 35°48' E 014°52'0 0.0
2018-Apr-23 14:29N 35°48' E 014°52'0 0.1
2018-Apr-23 13:59N 35°48' E 014°52'0 0.0
2018-Apr-23 13:29N 35°48' E 014°52'0 0.0
2018-Apr-23 12:59N 35°48' E 014°52'0 0.0
2018-Apr-23 12:29N 35°48' E 014°52'0 0.0
2018-Apr-23 11:59N 35°48' E 014°52'0 0.0
2018-Apr-23 11:29N 35°48' E 014°52'0 0.2
2018-Apr-23 10:59N 35°48' E 014°52'0 0.2
2018-Apr-23 10:30N 35°48' E 014°52'2 4.6
2018-Apr-23 10:00N 35°51' E 014°53'4 8.7
2018-Apr-23 09:30N 35°55' E 014°54'4 8.8
2018-Apr-23 09:00N 35°59' E 014°56'5 8.9
2018-Apr-23 08:30N 36°03' E 014°57'5 9.3
2018-Apr-23 08:00N 36°08' E 014°59'81 8.9
2018-Apr-22 22:55N 37°24' E 015°31'4 8.8
2018-Apr-22 22:30N 37°28' E 015°32'7 8.7
2018-Apr-22 21:43N 37°35' E 015°33'2 8.8
2018-Apr-22 21:30N 37°37' E 015°33'4 9.1
2018-Apr-22 21:00N 37°41' E 015°33'16 9.1
2018-Apr-22 19:17N 37°57' E 015°34'310.0
2018-Apr-22 19:00N 37°60' E 015°34'5 9.7
2018-Apr-22 18:30N 38°05' E 015°35'511.1
2018-Apr-22 18:00N 38°10' E 015°36'5 9.8
2018-Apr-22 17:30N 38°15' E 015°37'4 8.4
2018-Apr-22 17:00N 38°18' E 015°41'4 8.7
2018-Apr-22 16:30N 38°21' E 015°37'4 8.7
2018-Apr-22 16:00N 38°24' E 015°33'4 8.9
2018-Apr-22 15:30N 38°27' E 015°29'4 8.9
2018-Apr-22 15:00N 38°31' E 015°25'5 8.9
2018-Apr-22 14:28N 38°34' E 015°21'4 8.8
2018-Apr-22 14:00N 38°37' E 015°17'5 8.9
2018-Apr-22 13:30N 38°40' E 015°13'4 8.8
2018-Apr-22 13:00N 38°43' E 015°09'5 8.8
2018-Apr-22 12:29N 38°47' E 015°07'85 8.7
2018-Apr-22 02:45N 40°05' E 014°22'12 8.5
2018-Apr-22 01:22N 40°15' E 014°16'8 8.3
2018-Apr-22 00:24N 40°23' E 014°11'3 8.3
2018-Apr-22 00:00N 40°26' E 014°10'6 8.1
2018-Apr-21 23:15N 40°31' E 014°06'2 7.5
2018-Apr-21 23:00N 40°33' E 014°05'4 8.0
2018-Apr-21 22:30N 40°37' E 014°08'4 8.3
2018-Apr-21 22:00N 40°40' E 014°11'4 8.1
2018-Apr-21 21:30N 40°44' E 014°13'4 8.5
2018-Apr-21 21:01N 40°47' E 014°16'3 6.0
2018-Apr-21 20:30N 40°50' E 014°17'0 0.3
2018-Apr-21 20:00N 40°50' E 014°17'0 0.0
2018-Apr-21 19:30N 40°50' E 014°17'0 0.0
2018-Apr-21 18:57N 40°50' E 014°17'0 0.0
2018-Apr-21 18:30N 40°50' E 014°17'0 0.0
2018-Apr-21 18:00N 40°50' E 014°17'0 0.0
2018-Apr-21 17:30N 40°50' E 014°17'0 0.0
2018-Apr-21 17:00N 40°50' E 014°17'0 0.0
2018-Apr-21 16:30N 40°50' E 014°17'0 0.0
2018-Apr-21 16:00N 40°50' E 014°17'0 0.0
2018-Apr-21 15:30N 40°50' E 014°17'0 0.0
2018-Apr-21 15:00N 40°50' E 014°17'0 0.0
2018-Apr-21 14:30N 40°50' E 014°17'0 0.0
2018-Apr-21 14:00N 40°50' E 014°17'0 0.0
2018-Apr-21 13:30N 40°50' E 014°17'0 0.0
2018-Apr-21 13:00N 40°50' E 014°17'0 0.0
2018-Apr-21 12:30N 40°50' E 014°17'0 0.0
2018-Apr-21 12:00N 40°50' E 014°17'0 0.0
2018-Apr-21 11:30N 40°50' E 014°17'0 0.3
2018-Apr-21 11:00N 40°50' E 014°17'2 3.9
2018-Apr-21 10:30N 40°48' E 014°17'4 8.1
2018-Apr-21 10:00N 40°45' E 014°15'510.6
2018-Apr-21 09:30N 40°40' E 014°11'510.6
2018-Apr-21 09:00N 40°36' E 014°08'7 9.6
2018-Apr-21 08:14N 40°28' E 014°09'310.3
2018-Apr-21 07:58N 40°26' E 014°11'510.3
2018-Apr-21 07:28N 40°21' E 014°14'13215.1
2018-Apr-20 22:44N 38°26' E 015°37'414.8
2018-Apr-20 22:30N 38°23' E 015°39'812.3
2018-Apr-20 21:53N 38°15' E 015°40'513.1
2018-Apr-20 21:30N 38°11' E 015°37'713.8
2018-Apr-20 21:00N 38°04' E 015°36'612.8
2018-Apr-20 20:31N 37°58' E 015°35'813.2
2018-Apr-20 19:55N 37°50' E 015°35'614.1
2018-Apr-20 19:30N 37°44' E 015°34'714.2
2018-Apr-20 19:00N 37°37' E 015°33'914.2
2018-Apr-20 18:23N 37°28' E 015°32'614.7
2018-Apr-20 18:00N 37°23' E 015°31'815.0
2018-Apr-20 17:28N 37°15' E 015°30'14210.6
2018-Apr-20 04:05N 34°56' E 014°53'1 8.5
2018-Apr-20 03:59N 34°55' E 014°53'5 9.3
2018-Apr-20 03:29N 34°51' E 014°52'4 8.3
2018-Apr-20 02:58N 34°46' E 014°51'4 8.3
2018-Apr-20 02:30N 34°43' E 014°50'4 8.8
2018-Apr-20 02:00N 34°38' E 014°49'7 9.2
2018-Apr-20 01:15N 34°31' E 014°47'  
2018-Apr-17 18:12N 32°41' E 014°15'0 0.0
2018-Apr-17 18:00N 32°41' E 014°15'0 0.0
2018-Apr-17 17:27N 32°41' E 014°15'0 0.0
2018-Apr-17 13:36N 32°41' E 014°15'0 0.0
2018-Apr-17 13:27N 32°41' E 014°15'0 0.0
2018-Apr-17 12:15N 32°41' E 014°15'  
2018-Apr-14 05:54N 32°22' E 015°13'0 0.0
2018-Apr-14 05:27N 32°22' E 015°13'0 0.0
2018-Apr-13 21:09N 32°22' E 015°13'0 0.0
2018-Apr-13 19:03N 32°22' E 015°13'0 0.0
2018-Apr-13 15:45N 32°22' E 015°13'0 0.0
2018-Apr-13 15:30N 32°22' E 015°13'  

Dump ship's entire track history